sensor_id;sensor_type;location;lat;lon;timestamp;temperature;humidity
13322;DHT22;6730;46.248;6.930;2023-04-03T00:02:08;8.00;99.90
13322;DHT22;6730;46.248;6.930;2023-04-03T00:04:33;7.90;99.90
13322;DHT22;6730;46.248;6.930;2023-04-03T00:06:59;7.70;99.90
13322;DHT22;6730;46.248;6.930;2023-04-03T00:09:25;7.50;99.90
13322;DHT22;6730;46.248;6.930;2023-04-03T00:11:50;7.40;99.90
13322;DHT22;6730;46.248;6.930;2023-04-03T00:14:16;7.50;99.90
13322;DHT22;6730;46.248;6.930;2023-04-03T00:16:42;7.70;99.90
13322;DHT22;6730;46.248;6.930;2023-04-03T00:19:07;7.80;99.90
13322;DHT22;6730;46.248;6.930;2023-04-03T00:21:33;7.90;99.90
13322;DHT22;6730;46.248;6.930;2023-04-03T00:23:59;8.00;99.90
13322;DHT22;6730;46.248;6.930;2023-04-03T00:26:25;8.00;99.90
13322;DHT22;6730;46.248;6.930;2023-04-03T00:28:50;8.00;99.90
13322;DHT22;6730;46.248;6.930;2023-04-03T00:31:16;7.80;99.90
13322;DHT22;6730;46.248;6.930;2023-04-03T00:33:42;7.70;99.90
13322;DHT22;6730;46.248;6.930;2023-04-03T00:36:12;7.60;99.90
13322;DHT22;6730;46.248;6.930;2023-04-03T00:38:38;7.50;99.90
13322;DHT22;6730;46.248;6.930;2023-04-03T00:41:05;7.40;99.90
13322;DHT22;6730;46.248;6.930;2023-04-03T00:43:31;7.30;99.90
13322;DHT22;6730;46.248;6.930;2023-04-03T00:45:58;7.50;99.90
13322;DHT22;6730;46.248;6.930;2023-04-03T00:51:04;7.40;99.90
13322;DHT22;6730;46.248;6.930;2023-04-03T00:53:35;7.40;99.90
13322;DHT22;6730;46.248;6.930;2023-04-03T00:56:06;7.40;99.90
13322;DHT22;6730;46.248;6.930;2023-04-03T00:58:37;7.20;99.90
13322;DHT22;6730;46.248;6.930;2023-04-03T01:01:07;6.80;99.90
13322;DHT22;6730;46.248;6.930;2023-04-03T01:03:34;6.60;99.90
13322;DHT22;6730;46.248;6.930;2023-04-03T01:06:00;6.50;99.90
13322;DHT22;6730;46.248;6.930;2023-04-03T01:08:25;6.80;99.90
13322;DHT22;6730;46.248;6.930;2023-04-03T01:10:51;6.80;99.90
13322;DHT22;6730;46.248;6.930;2023-04-03T01:13:20;7.00;99.90
13322;DHT22;6730;46.248;6.930;2023-04-03T01:15:46;7.00;99.90
13322;DHT22;6730;46.248;6.930;2023-04-03T01:18:11;7.10;99.90
13322;DHT22;6730;46.248;6.930;2023-04-03T01:25:58;6.70;99.90
13322;DHT22;6730;46.248;6.930;2023-04-03T01:28:26;6.70;99.90
13322;DHT22;6730;46.248;6.930;2023-04-03T01:33:36;6.80;99.90
13322;DHT22;6730;46.248;6.930;2023-04-03T01:36:02;7.20;99.90
13322;DHT22;6730;46.248;6.930;2023-04-03T01:38:28;7.40;99.90
13322;DHT22;6730;46.248;6.930;2023-04-03T01:40:54;7.60;99.90
13322;DHT22;6730;46.248;6.930;2023-04-03T01:43:20;7.70;99.90
13322;DHT22;6730;46.248;6.930;2023-04-03T01:45:46;7.90;99.90
13322;DHT22;6730;46.248;6.930;2023-04-03T01:48:12;7.90;99.90
13322;DHT22;6730;46.248;6.930;2023-04-03T01:50:38;7.90;99.90
13322;DHT22;6730;46.248;6.930;2023-04-03T01:53:05;7.80;99.90
13322;DHT22;6730;46.248;6.930;2023-04-03T01:55:30;7.90;99.90
13322;DHT22;6730;46.248;6.930;2023-04-03T01:57:56;7.60;99.90
13322;DHT22;6730;46.248;6.930;2023-04-03T02:00:21;7.40;99.90
13322;DHT22;6730;46.248;6.930;2023-04-03T02:02:47;7.30;99.90
13322;DHT22;6730;46.248;6.930;2023-04-03T02:05:13;6.80;99.90
13322;DHT22;6730;46.248;6.930;2023-04-03T02:07:39;6.60;99.90
13322;DHT22;6730;46.248;6.930;2023-04-03T02:10:05;6.70;99.90
13322;DHT22;6730;46.248;6.930;2023-04-03T02:12:30;7.10;99.90
13322;DHT22;6730;46.248;6.930;2023-04-03T02:14:56;7.50;99.90
13322;DHT22;6730;46.248;6.930;2023-04-03T02:17:22;7.70;99.90
13322;DHT22;6730;46.248;6.930;2023-04-03T02:19:47;7.70;99.90
13322;DHT22;6730;46.248;6.930;2023-04-03T02:22:13;7.70;99.90
13322;DHT22;6730;46.248;6.930;2023-04-03T02:24:39;7.60;99.90
13322;DHT22;6730;46.248;6.930;2023-04-03T02:27:05;7.60;99.90
13322;DHT22;6730;46.248;6.930;2023-04-03T02:29:31;7.60;99.90
13322;DHT22;6730;46.248;6.930;2023-04-03T02:31:57;7.50;99.90
13322;DHT22;6730;46.248;6.930;2023-04-03T02:34:22;7.50;99.90
13322;DHT22;6730;46.248;6.930;2023-04-03T02:36:48;7.50;99.90
13322;DHT22;6730;46.248;6.930;2023-04-03T02:39:14;7.50;99.90
13322;DHT22;6730;46.248;6.930;2023-04-03T02:41:40;7.40;99.90
13322;DHT22;6730;46.248;6.930;2023-04-03T02:44:06;6.60;99.90
13322;DHT22;6730;46.248;6.930;2023-04-03T02:46:32;6.30;99.90
13322;DHT22;6730;46.248;6.930;2023-04-03T02:48:58;6.60;99.90
13322;DHT22;6730;46.248;6.930;2023-04-03T02:51:24;6.90;99.90
13322;DHT22;6730;46.248;6.930;2023-04-03T02:53:50;7.20;99.90
13322;DHT22;6730;46.248;6.930;2023-04-03T02:56:16;7.00;99.90
13322;DHT22;6730;46.248;6.930;2023-04-03T02:58:44;7.30;99.90
13322;DHT22;6730;46.248;6.930;2023-04-03T03:01:10;7.60;99.90
13322;DHT22;6730;46.248;6.930;2023-04-03T03:03:36;7.80;99.90
13322;DHT22;6730;46.248;6.930;2023-04-03T03:06:04;7.90;99.90
13322;DHT22;6730;46.248;6.930;2023-04-03T03:08:30;7.80;99.90
13322;DHT22;6730;46.248;6.930;2023-04-03T03:10:56;7.90;99.90
13322;DHT22;6730;46.248;6.930;2023-04-03T03:13:21;7.90;99.90
13322;DHT22;6730;46.248;6.930;2023-04-03T03:15:47;7.60;99.90
13322;DHT22;6730;46.248;6.930;2023-04-03T03:18:12;7.20;99.90
13322;DHT22;6730;46.248;6.930;2023-04-03T03:20:38;6.90;99.90
13322;DHT22;6730;46.248;6.930;2023-04-03T03:23:04;7.00;99.90
13322;DHT22;6730;46.248;6.930;2023-04-03T03:25:29;7.40;99.90
13322;DHT22;6730;46.248;6.930;2023-04-03T03:27:55;7.70;99.90
13322;DHT22;6730;46.248;6.930;2023-04-03T03:30:20;7.90;99.90
13322;DHT22;6730;46.248;6.930;2023-04-03T03:32:46;7.80;99.90
13322;DHT22;6730;46.248;6.930;2023-04-03T03:35:12;7.40;99.90
13322;DHT22;6730;46.248;6.930;2023-04-03T03:37:37;6.80;99.90
13322;DHT22;6730;46.248;6.930;2023-04-03T03:40:03;6.30;99.90
13322;DHT22;6730;46.248;6.930;2023-04-03T03:42:29;6.00;99.90
13322;DHT22;6730;46.248;6.930;2023-04-03T03:44:55;5.80;99.90
13322;DHT22;6730;46.248;6.930;2023-04-03T03:47:20;5.90;99.90
13322;DHT22;6730;46.248;6.930;2023-04-03T03:49:46;6.40;99.90
13322;DHT22;6730;46.248;6.930;2023-04-03T03:52:12;6.90;99.90
13322;DHT22;6730;46.248;6.930;2023-04-03T03:54:38;7.20;99.90
13322;DHT22;6730;46.248;6.930;2023-04-03T03:57:04;7.50;99.90
13322;DHT22;6730;46.248;6.930;2023-04-03T03:59:30;7.70;99.90
13322;DHT22;6730;46.248;6.930;2023-04-03T04:01:56;7.70;99.90
13322;DHT22;6730;46.248;6.930;2023-04-03T04:04:21;7.60;99.90
13322;DHT22;6730;46.248;6.930;2023-04-03T04:06:47;7.70;99.90
13322;DHT22;6730;46.248;6.930;2023-04-03T04:09:13;7.80;99.90
13322;DHT22;6730;46.248;6.930;2023-04-03T04:11:38;7.90;99.90
13322;DHT22;6730;46.248;6.930;2023-04-03T04:14:06;7.80;99.90
13322;DHT22;6730;46.248;6.930;2023-04-03T04:16:32;7.60;99.90
13322;DHT22;6730;46.248;6.930;2023-04-03T04:18:57;7.70;99.90
13322;DHT22;6730;46.248;6.930;2023-04-03T04:21:23;7.90;99.90
13322;DHT22;6730;46.248;6.930;2023-04-03T04:23:49;7.80;99.90
13322;DHT22;6730;46.248;6.930;2023-04-03T04:26:14;7.80;99.90
13322;DHT22;6730;46.248;6.930;2023-04-03T04:28:40;7.70;99.90
13322;DHT22;6730;46.248;6.930;2023-04-03T04:31:05;7.70;99.90
13322;DHT22;6730;46.248;6.930;2023-04-03T04:33:31;7.70;99.90
13322;DHT22;6730;46.248;6.930;2023-04-03T04:35:57;7.80;99.90
13322;DHT22;6730;46.248;6.930;2023-04-03T04:38:22;7.80;99.90
13322;DHT22;6730;46.248;6.930;2023-04-03T04:40:48;7.00;99.90
13322;DHT22;6730;46.248;6.930;2023-04-03T04:43:14;6.20;99.90
13322;DHT22;6730;46.248;6.930;2023-04-03T04:45:41;5.80;99.90
13322;DHT22;6730;46.248;6.930;2023-04-03T04:48:07;5.60;99.90
13322;DHT22;6730;46.248;6.930;2023-04-03T04:50:32;5.70;99.90
13322;DHT22;6730;46.248;6.930;2023-04-03T04:52:58;6.00;99.90
13322;DHT22;6730;46.248;6.930;2023-04-03T04:55:24;6.30;99.90
13322;DHT22;6730;46.248;6.930;2023-04-03T04:57:49;6.30;99.90
13322;DHT22;6730;46.248;6.930;2023-04-03T05:00:15;6.60;99.90
13322;DHT22;6730;46.248;6.930;2023-04-03T05:02:41;6.80;99.90
13322;DHT22;6730;46.248;6.930;2023-04-03T05:05:07;7.10;99.90
13322;DHT22;6730;46.248;6.930;2023-04-03T05:07:33;7.20;99.90
13322;DHT22;6730;46.248;6.930;2023-04-03T05:10:01;7.40;99.90
13322;DHT22;6730;46.248;6.930;2023-04-03T05:12:28;7.50;99.90
13322;DHT22;6730;46.248;6.930;2023-04-03T05:14:54;7.50;99.90
13322;DHT22;6730;46.248;6.930;2023-04-03T05:17:19;7.70;99.90
13322;DHT22;6730;46.248;6.930;2023-04-03T05:19:45;7.80;99.90
13322;DHT22;6730;46.248;6.930;2023-04-03T05:22:11;7.80;99.90
13322;DHT22;6730;46.248;6.930;2023-04-03T05:24:36;7.60;99.90
13322;DHT22;6730;46.248;6.930;2023-04-03T05:27:02;7.50;99.90
13322;DHT22;6730;46.248;6.930;2023-04-03T05:29:28;7.50;99.90
13322;DHT22;6730;46.248;6.930;2023-04-03T05:31:53;7.30;99.90
13322;DHT22;6730;46.248;6.930;2023-04-03T05:34:19;7.10;99.90
13322;DHT22;6730;46.248;6.930;2023-04-03T05:36:45;7.20;99.90
13322;DHT22;6730;46.248;6.930;2023-04-03T05:39:11;7.00;99.90
13322;DHT22;6730;46.248;6.930;2023-04-03T05:41:37;6.90;99.90
13322;DHT22;6730;46.248;6.930;2023-04-03T05:44:02;6.90;99.90
13322;DHT22;6730;46.248;6.930;2023-04-03T05:46:28;7.20;99.90
13322;DHT22;6730;46.248;6.930;2023-04-03T05:48:54;7.20;99.90
13322;DHT22;6730;46.248;6.930;2023-04-03T05:51:28;6.90;99.90
13322;DHT22;6730;46.248;6.930;2023-04-03T05:54:00;6.40;99.90
13322;DHT22;6730;46.248;6.930;2023-04-03T05:56:28;6.00;99.90
13322;DHT22;6730;46.248;6.930;2023-04-03T05:58:53;5.80;99.90
13322;DHT22;6730;46.248;6.930;2023-04-03T06:01:20;5.90;99.90
13322;DHT22;6730;46.248;6.930;2023-04-03T06:03:46;5.80;99.90
13322;DHT22;6730;46.248;6.930;2023-04-03T06:06:13;5.80;99.90
13322;DHT22;6730;46.248;6.930;2023-04-03T06:08:39;5.70;99.90
13322;DHT22;6730;46.248;6.930;2023-04-03T06:11:05;5.70;99.90
13322;DHT22;6730;46.248;6.930;2023-04-03T06:13:31;5.80;99.90
13322;DHT22;6730;46.248;6.930;2023-04-03T06:15:57;6.30;99.90
13322;DHT22;6730;46.248;6.930;2023-04-03T06:18:23;6.60;99.90
13322;DHT22;6730;46.248;6.930;2023-04-03T06:20:49;6.50;99.90
13322;DHT22;6730;46.248;6.930;2023-04-03T06:23:15;6.30;99.90
13322;DHT22;6730;46.248;6.930;2023-04-03T06:25:41;6.50;99.90
13322;DHT22;6730;46.248;6.930;2023-04-03T06:28:08;6.70;99.90
13322;DHT22;6730;46.248;6.930;2023-04-03T06:30:36;6.80;99.90
13322;DHT22;6730;46.248;6.930;2023-04-03T06:33:02;6.80;99.90
13322;DHT22;6730;46.248;6.930;2023-04-03T06:35:31;6.80;99.90
13322;DHT22;6730;46.248;6.930;2023-04-03T06:37:56;6.70;99.90
13322;DHT22;6730;46.248;6.930;2023-04-03T06:40:24;6.70;99.90
13322;DHT22;6730;46.248;6.930;2023-04-03T06:42:54;6.90;99.90
13322;DHT22;6730;46.248;6.930;2023-04-03T06:45:20;6.80;99.90
13322;DHT22;6730;46.248;6.930;2023-04-03T06:47:47;6.50;99.90
13322;DHT22;6730;46.248;6.930;2023-04-03T06:50:12;6.10;99.90
13322;DHT22;6730;46.248;6.930;2023-04-03T06:52:40;6.00;99.90
13322;DHT22;6730;46.248;6.930;2023-04-03T06:55:07;6.10;99.90
13322;DHT22;6730;46.248;6.930;2023-04-03T06:57:33;6.00;99.90
13322;DHT22;6730;46.248;6.930;2023-04-03T06:59:59;5.90;99.90
13322;DHT22;6730;46.248;6.930;2023-04-03T07:02:25;5.80;99.90
13322;DHT22;6730;46.248;6.930;2023-04-03T07:04:51;5.80;99.90
13322;DHT22;6730;46.248;6.930;2023-04-03T07:07:17;5.90;99.90
13322;DHT22;6730;46.248;6.930;2023-04-03T07:09:43;5.90;99.90
13322;DHT22;6730;46.248;6.930;2023-04-03T07:12:08;5.90;99.90
13322;DHT22;6730;46.248;6.930;2023-04-03T07:14:34;5.90;99.90
13322;DHT22;6730;46.248;6.930;2023-04-03T07:17:00;6.10;99.90
13322;DHT22;6730;46.248;6.930;2023-04-03T07:19:26;6.30;99.90
13322;DHT22;6730;46.248;6.930;2023-04-03T07:21:53;6.50;99.90
13322;DHT22;6730;46.248;6.930;2023-04-03T07:24:19;6.80;99.90
13322;DHT22;6730;46.248;6.930;2023-04-03T07:26:49;7.00;99.90
13322;DHT22;6730;46.248;6.930;2023-04-03T07:29:15;7.40;99.90
13322;DHT22;6730;46.248;6.930;2023-04-03T07:31:40;7.60;99.90
13322;DHT22;6730;46.248;6.930;2023-04-03T07:34:06;7.60;99.90
13322;DHT22;6730;46.248;6.930;2023-04-03T07:36:32;7.70;99.90
13322;DHT22;6730;46.248;6.930;2023-04-03T07:38:58;7.80;99.90
13322;DHT22;6730;46.248;6.930;2023-04-03T07:41:24;7.90;99.90
13322;DHT22;6730;46.248;6.930;2023-04-03T07:43:50;7.90;99.90
13322;DHT22;6730;46.248;6.930;2023-04-03T07:46:15;7.90;99.90
13322;DHT22;6730;46.248;6.930;2023-04-03T07:48:43;8.10;99.90
13322;DHT22;6730;46.248;6.930;2023-04-03T07:51:09;7.90;99.90
13322;DHT22;6730;46.248;6.930;2023-04-03T07:53:36;7.60;99.90
13322;DHT22;6730;46.248;6.930;2023-04-03T07:56:01;7.60;99.90
13322;DHT22;6730;46.248;6.930;2023-04-03T07:58:28;7.20;99.90
13322;DHT22;6730;46.248;6.930;2023-04-03T08:00:54;7.20;99.90
13322;DHT22;6730;46.248;6.930;2023-04-03T08:03:20;7.40;99.90
13322;DHT22;6730;46.248;6.930;2023-04-03T08:05:47;7.60;99.90
13322;DHT22;6730;46.248;6.930;2023-04-03T08:08:17;7.70;99.90
13322;DHT22;6730;46.248;6.930;2023-04-03T08:10:43;7.60;99.90
13322;DHT22;6730;46.248;6.930;2023-04-03T08:13:09;7.40;99.90
13322;DHT22;6730;46.248;6.930;2023-04-03T08:15:35;7.40;99.90
13322;DHT22;6730;46.248;6.930;2023-04-03T08:18:01;7.50;99.90
13322;DHT22;6730;46.248;6.930;2023-04-03T08:20:27;7.60;99.90
13322;DHT22;6730;46.248;6.930;2023-04-03T08:22:53;7.60;99.90
13322;DHT22;6730;46.248;6.930;2023-04-03T08:25:19;7.50;99.90
13322;DHT22;6730;46.248;6.930;2023-04-03T08:27:45;7.50;99.90
13322;DHT22;6730;46.248;6.930;2023-04-03T08:30:11;7.40;99.90
13322;DHT22;6730;46.248;6.930;2023-04-03T08:32:37;7.40;99.90
13322;DHT22;6730;46.248;6.930;2023-04-03T08:35:04;7.40;99.90
13322;DHT22;6730;46.248;6.930;2023-04-03T08:37:30;7.30;99.90
13322;DHT22;6730;46.248;6.930;2023-04-03T08:39:56;7.30;99.90
13322;DHT22;6730;46.248;6.930;2023-04-03T08:45:12;7.40;99.90
13322;DHT22;6730;46.248;6.930;2023-04-03T08:47:50;7.30;99.90
13322;DHT22;6730;46.248;6.930;2023-04-03T08:50:26;7.30;99.90
13322;DHT22;6730;46.248;6.930;2023-04-03T08:52:58;7.30;99.90
13322;DHT22;6730;46.248;6.930;2023-04-03T08:55:34;7.30;99.90
13322;DHT22;6730;46.248;6.930;2023-04-03T08:58:15;7.30;99.90
13322;DHT22;6730;46.248;6.930;2023-04-03T09:03:15;7.50;99.90
13322;DHT22;6730;46.248;6.930;2023-04-03T09:10:44;7.20;99.90
13322;DHT22;6730;46.248;6.930;2023-04-03T09:13:24;7.30;99.90
13322;DHT22;6730;46.248;6.930;2023-04-03T09:15:53;7.30;99.90
13322;DHT22;6730;46.248;6.930;2023-04-03T09:18:20;7.50;99.90
13322;DHT22;6730;46.248;6.930;2023-04-03T09:21:08;7.50;99.90
13322;DHT22;6730;46.248;6.930;2023-04-03T09:23:45;7.70;99.90
13322;DHT22;6730;46.248;6.930;2023-04-03T09:26:25;7.70;99.90
13322;DHT22;6730;46.248;6.930;2023-04-03T09:28:57;7.50;99.90
13322;DHT22;6730;46.248;6.930;2023-04-03T09:31:27;7.40;99.90
13322;DHT22;6730;46.248;6.930;2023-04-03T09:33:58;7.30;99.90
13322;DHT22;6730;46.248;6.930;2023-04-03T09:36:47;7.10;99.90
13322;DHT22;6730;46.248;6.930;2023-04-03T09:39:16;6.90;99.90
13322;DHT22;6730;46.248;6.930;2023-04-03T09:41:54;6.80;99.90
13322;DHT22;6730;46.248;6.930;2023-04-03T09:44:23;6.90;99.90
13322;DHT22;6730;46.248;6.930;2023-04-03T09:46:49;6.90;99.90
13322;DHT22;6730;46.248;6.930;2023-04-03T09:49:15;6.90;99.90
13322;DHT22;6730;46.248;6.930;2023-04-03T09:51:42;6.90;99.90
13322;DHT22;6730;46.248;6.930;2023-04-03T09:56:50;7.00;99.90
13322;DHT22;6730;46.248;6.930;2023-04-03T09:59:16;6.90;99.90
13322;DHT22;6730;46.248;6.930;2023-04-03T10:01:56;7.00;99.90
13322;DHT22;6730;46.248;6.930;2023-04-03T10:04:22;7.10;99.90
13322;DHT22;6730;46.248;6.930;2023-04-03T10:06:54;7.00;99.90
13322;DHT22;6730;46.248;6.930;2023-04-03T10:12:07;7.10;99.90
13322;DHT22;6730;46.248;6.930;2023-04-03T10:14:36;7.10;99.90
13322;DHT22;6730;46.248;6.930;2023-04-03T10:17:17;7.10;99.90
13322;DHT22;6730;46.248;6.930;2023-04-03T10:19:56;7.10;99.90
13322;DHT22;6730;46.248;6.930;2023-04-03T10:22:37;7.20;99.90
13322;DHT22;6730;46.248;6.930;2023-04-03T10:25:25;7.10;99.90
13322;DHT22;6730;46.248;6.930;2023-04-03T10:27:55;7.20;99.90
13322;DHT22;6730;46.248;6.930;2023-04-03T10:30:36;7.20;99.90
13322;DHT22;6730;46.248;6.930;2023-04-03T10:33:09;7.20;99.90
13322;DHT22;6730;46.248;6.930;2023-04-03T10:38:31;7.20;99.90
13322;DHT22;6730;46.248;6.930;2023-04-03T10:41:45;7.20;99.90
13322;DHT22;6730;46.248;6.930;2023-04-03T10:47:15;7.40;99.90
13322;DHT22;6730;46.248;6.930;2023-04-03T10:50:46;7.50;99.90
13322;DHT22;6730;46.248;6.930;2023-04-03T10:58:05;7.70;99.90
13322;DHT22;6730;46.248;6.930;2023-04-03T11:00:43;7.80;99.90
13322;DHT22;6730;46.248;6.930;2023-04-03T11:03:17;8.00;99.90
13322;DHT22;6730;46.248;6.930;2023-04-03T11:05:52;8.40;99.90
13322;DHT22;6730;46.248;6.930;2023-04-03T11:08:28;8.70;99.90
13322;DHT22;6730;46.248;6.930;2023-04-03T11:10:59;8.90;99.90
13322;DHT22;6730;46.248;6.930;2023-04-03T11:15:58;8.50;99.90
13322;DHT22;6730;46.248;6.930;2023-04-03T11:21:04;8.20;99.90
13322;DHT22;6730;46.248;6.930;2023-04-03T11:23:38;8.20;99.90
13322;DHT22;6730;46.248;6.930;2023-04-03T11:28:33;7.90;99.90
13322;DHT22;6730;46.248;6.930;2023-04-03T11:31:13;8.10;99.90
13322;DHT22;6730;46.248;6.930;2023-04-03T11:36:47;8.10;99.90
13322;DHT22;6730;46.248;6.930;2023-04-03T11:39:25;8.20;99.90
13322;DHT22;6730;46.248;6.930;2023-04-03T11:41:51;8.20;99.90
13322;DHT22;6730;46.248;6.930;2023-04-03T11:44:35;8.20;99.90
13322;DHT22;6730;46.248;6.930;2023-04-03T11:47:03;8.30;99.90
13322;DHT22;6730;46.248;6.930;2023-04-03T11:49:55;8.30;99.90
13322;DHT22;6730;46.248;6.930;2023-04-03T12:11:28;8.30;99.90
13322;DHT22;6730;46.248;6.930;2023-04-03T12:24:23;8.20;99.90
13322;DHT22;6730;46.248;6.930;2023-04-03T12:30:28;8.10;99.90
13322;DHT22;6730;46.248;6.930;2023-04-03T12:37:54;7.80;99.90
13322;DHT22;6730;46.248;6.930;2023-04-03T12:48:30;8.00;99.90
13322;DHT22;6730;46.248;6.930;2023-04-03T12:50:58;8.00;99.90
13322;DHT22;6730;46.248;6.930;2023-04-03T12:53:31;8.00;99.90
13322;DHT22;6730;46.248;6.930;2023-04-03T12:56:23;8.00;99.90
13322;DHT22;6730;46.248;6.930;2023-04-03T12:58:50;8.00;99.90
13322;DHT22;6730;46.248;6.930;2023-04-03T13:01:18;8.00;99.90
13322;DHT22;6730;46.248;6.930;2023-04-03T13:03:48;8.00;99.90
13322;DHT22;6730;46.248;6.930;2023-04-03T13:06:23;7.90;99.90
13322;DHT22;6730;46.248;6.930;2023-04-03T13:08:56;7.80;99.90
13322;DHT22;6730;46.248;6.930;2023-04-03T13:11:40;7.80;99.90
13322;DHT22;6730;46.248;6.930;2023-04-03T13:14:18;7.80;99.90
13322;DHT22;6730;46.248;6.930;2023-04-03T13:16:58;7.80;99.90
13322;DHT22;6730;46.248;6.930;2023-04-03T13:19:31;7.90;99.90
13322;DHT22;6730;46.248;6.930;2023-04-03T13:22:02;7.80;99.90
13322;DHT22;6730;46.248;6.930;2023-04-03T13:24:32;7.70;99.90
13322;DHT22;6730;46.248;6.930;2023-04-03T13:26:59;7.70;99.90
13322;DHT22;6730;46.248;6.930;2023-04-03T13:29:31;7.70;99.90
13322;DHT22;6730;46.248;6.930;2023-04-03T13:31:58;7.60;99.90
13322;DHT22;6730;46.248;6.930;2023-04-03T13:34:27;7.50;99.90
13322;DHT22;6730;46.248;6.930;2023-04-03T13:36:58;7.60;99.90
13322;DHT22;6730;46.248;6.930;2023-04-03T13:39:35;7.50;99.90
13322;DHT22;6730;46.248;6.930;2023-04-03T13:42:20;7.70;99.90
13322;DHT22;6730;46.248;6.930;2023-04-03T13:44:47;7.70;99.90
13322;DHT22;6730;46.248;6.930;2023-04-03T13:47:17;7.70;99.90
13322;DHT22;6730;46.248;6.930;2023-04-03T13:55:17;7.80;99.90
13322;DHT22;6730;46.248;6.930;2023-04-03T14:02:58;7.60;99.90
13322;DHT22;6730;46.248;6.930;2023-04-03T14:05:24;7.70;99.90
13322;DHT22;6730;46.248;6.930;2023-04-03T14:07:52;7.70;99.90
13322;DHT22;6730;46.248;6.930;2023-04-03T14:10:18;7.60;99.90
13322;DHT22;6730;46.248;6.930;2023-04-03T14:12:43;7.50;99.90
13322;DHT22;6730;46.248;6.930;2023-04-03T14:15:28;7.50;99.90
13322;DHT22;6730;46.248;6.930;2023-04-03T14:17:54;7.40;99.90
13322;DHT22;6730;46.248;6.930;2023-04-03T14:20:24;7.40;99.90
13322;DHT22;6730;46.248;6.930;2023-04-03T14:22:50;7.40;99.90
13322;DHT22;6730;46.248;6.930;2023-04-03T14:25:17;7.40;99.90
13322;DHT22;6730;46.248;6.930;2023-04-03T14:27:46;7.40;99.90
13322;DHT22;6730;46.248;6.930;2023-04-03T14:30:19;7.40;99.90
13322;DHT22;6730;46.248;6.930;2023-04-03T14:32:46;7.40;99.90
13322;DHT22;6730;46.248;6.930;2023-04-03T14:35:13;7.40;99.90
13322;DHT22;6730;46.248;6.930;2023-04-03T14:37:40;7.50;99.90
13322;DHT22;6730;46.248;6.930;2023-04-03T14:40:08;7.60;99.90
13322;DHT22;6730;46.248;6.930;2023-04-03T14:42:36;7.60;99.90
13322;DHT22;6730;46.248;6.930;2023-04-03T14:45:05;7.50;99.90
13322;DHT22;6730;46.248;6.930;2023-04-03T14:47:32;7.50;99.90
13322;DHT22;6730;46.248;6.930;2023-04-03T14:50:03;7.50;99.90
13322;DHT22;6730;46.248;6.930;2023-04-03T14:52:35;7.50;99.90
13322;DHT22;6730;46.248;6.930;2023-04-03T14:55:03;7.60;99.90
13322;DHT22;6730;46.248;6.930;2023-04-03T14:57:29;7.70;99.90
13322;DHT22;6730;46.248;6.930;2023-04-03T14:59:56;7.70;99.90
13322;DHT22;6730;46.248;6.930;2023-04-03T15:04:54;7.70;99.90
13322;DHT22;6730;46.248;6.930;2023-04-03T15:07:20;7.60;99.90
13322;DHT22;6730;46.248;6.930;2023-04-03T15:09:46;7.30;99.90
13322;DHT22;6730;46.248;6.930;2023-04-03T15:12:12;7.20;99.90
13322;DHT22;6730;46.248;6.930;2023-04-03T15:14:38;7.10;99.90
13322;DHT22;6730;46.248;6.930;2023-04-03T15:17:12;7.20;99.90
13322;DHT22;6730;46.248;6.930;2023-04-03T15:19:39;7.10;99.90
13322;DHT22;6730;46.248;6.930;2023-04-03T15:22:05;7.00;99.90
13322;DHT22;6730;46.248;6.930;2023-04-03T15:24:31;7.00;99.90
13322;DHT22;6730;46.248;6.930;2023-04-03T15:26:57;7.00;99.90
13322;DHT22;6730;46.248;6.930;2023-04-03T15:29:22;7.10;99.90
13322;DHT22;6730;46.248;6.930;2023-04-03T15:31:48;7.20;99.90
13322;DHT22;6730;46.248;6.930;2023-04-03T15:34:15;7.30;99.90
13322;DHT22;6730;46.248;6.930;2023-04-03T15:36:44;7.40;99.90
13322;DHT22;6730;46.248;6.930;2023-04-03T15:39:10;7.50;99.90
13322;DHT22;6730;46.248;6.930;2023-04-03T15:41:36;7.50;99.90
13322;DHT22;6730;46.248;6.930;2023-04-03T15:44:01;7.70;99.90
13322;DHT22;6730;46.248;6.930;2023-04-03T15:46:27;7.70;99.90
13322;DHT22;6730;46.248;6.930;2023-04-03T15:48:53;7.80;99.90
13322;DHT22;6730;46.248;6.930;2023-04-03T15:51:19;7.90;99.90
13322;DHT22;6730;46.248;6.930;2023-04-03T15:53:44;8.00;99.90
13322;DHT22;6730;46.248;6.930;2023-04-03T15:56:10;7.80;99.90
13322;DHT22;6730;46.248;6.930;2023-04-03T15:58:37;7.70;99.90
13322;DHT22;6730;46.248;6.930;2023-04-03T16:01:03;7.60;99.90
13322;DHT22;6730;46.248;6.930;2023-04-03T16:03:32;7.70;99.90
13322;DHT22;6730;46.248;6.930;2023-04-03T16:06:02;7.70;99.90
13322;DHT22;6730;46.248;6.930;2023-04-03T16:08:28;7.60;99.90
13322;DHT22;6730;46.248;6.930;2023-04-03T16:10:53;7.50;99.90
13322;DHT22;6730;46.248;6.930;2023-04-03T16:13:19;7.50;99.90
13322;DHT22;6730;46.248;6.930;2023-04-03T16:15:45;7.50;99.90
13322;DHT22;6730;46.248;6.930;2023-04-03T16:18:11;7.30;99.90
13322;DHT22;6730;46.248;6.930;2023-04-03T16:20:39;7.30;99.90
13322;DHT22;6730;46.248;6.930;2023-04-03T16:23:05;7.40;99.90
13322;DHT22;6730;46.248;6.930;2023-04-03T16:25:30;7.40;99.90
13322;DHT22;6730;46.248;6.930;2023-04-03T16:27:56;7.60;99.90
13322;DHT22;6730;46.248;6.930;2023-04-03T16:30:27;7.40;99.90
13322;DHT22;6730;46.248;6.930;2023-04-03T16:32:53;7.00;99.90
13322;DHT22;6730;46.248;6.930;2023-04-03T16:35:19;6.80;99.90
13322;DHT22;6730;46.248;6.930;2023-04-03T16:37:44;7.00;99.90
13322;DHT22;6730;46.248;6.930;2023-04-03T16:40:10;7.30;99.90
13322;DHT22;6730;46.248;6.930;2023-04-03T16:42:37;7.50;99.90
13322;DHT22;6730;46.248;6.930;2023-04-03T16:45:03;7.60;99.90
13322;DHT22;6730;46.248;6.930;2023-04-03T16:47:30;7.70;99.90
13322;DHT22;6730;46.248;6.930;2023-04-03T16:49:55;7.90;99.90
13322;DHT22;6730;46.248;6.930;2023-04-03T16:52:21;8.00;99.90
13322;DHT22;6730;46.248;6.930;2023-04-03T16:54:47;8.00;99.90
13322;DHT22;6730;46.248;6.930;2023-04-03T16:57:12;7.90;99.90
13322;DHT22;6730;46.248;6.930;2023-04-03T16:59:38;7.70;99.90
13322;DHT22;6730;46.248;6.930;2023-04-03T17:02:05;7.10;99.90
13322;DHT22;6730;46.248;6.930;2023-04-03T17:04:31;6.70;99.90
13322;DHT22;6730;46.248;6.930;2023-04-03T17:06:56;6.40;99.90
13322;DHT22;6730;46.248;6.930;2023-04-03T17:09:22;6.20;99.90
13322;DHT22;6730;46.248;6.930;2023-04-03T17:11:48;6.20;99.90
13322;DHT22;6730;46.248;6.930;2023-04-03T17:14:14;6.20;99.90
13322;DHT22;6730;46.248;6.930;2023-04-03T17:16:40;6.30;99.90
13322;DHT22;6730;46.248;6.930;2023-04-03T17:19:05;6.40;99.90
13322;DHT22;6730;46.248;6.930;2023-04-03T17:21:32;6.80;99.90
13322;DHT22;6730;46.248;6.930;2023-04-03T17:24:03;7.00;99.90
13322;DHT22;6730;46.248;6.930;2023-04-03T17:26:32;6.90;99.90
13322;DHT22;6730;46.248;6.930;2023-04-03T17:28:58;6.80;99.90
13322;DHT22;6730;46.248;6.930;2023-04-03T17:31:24;6.70;99.90
13322;DHT22;6730;46.248;6.930;2023-04-03T17:33:49;6.70;99.90
13322;DHT22;6730;46.248;6.930;2023-04-03T17:36:15;6.50;99.90
13322;DHT22;6730;46.248;6.930;2023-04-03T17:38:41;6.20;99.90
13322;DHT22;6730;46.248;6.930;2023-04-03T17:41:08;6.30;99.90
13322;DHT22;6730;46.248;6.930;2023-04-03T17:43:34;6.50;99.90
13322;DHT22;6730;46.248;6.930;2023-04-03T17:46:02;6.40;99.90
13322;DHT22;6730;46.248;6.930;2023-04-03T17:48:32;6.40;99.90
13322;DHT22;6730;46.248;6.930;2023-04-03T17:51:02;6.80;99.90
13322;DHT22;6730;46.248;6.930;2023-04-03T17:53:29;6.90;99.90
13322;DHT22;6730;46.248;6.930;2023-04-03T17:55:57;6.60;99.90